createdAt,value
2023-06-17T00:01:24.909Z,100.00
2023-06-17T00:03:53.042Z,100.00
2023-06-17T00:06:20.666Z,100.00
2023-06-17T00:08:48.215Z,100.00
2023-06-17T00:11:15.712Z,100.00
2023-06-17T00:13:43.291Z,100.00
2023-06-17T00:16:13.885Z,100.00
2023-06-17T00:18:42.450Z,100.00
2023-06-17T00:21:10.409Z,100.00
2023-06-17T00:23:38.045Z,100.00
2023-06-17T00:26:05.578Z,100.00
2023-06-17T00:28:33.401Z,100.00
2023-06-17T00:31:00.987Z,100.00
2023-06-17T00:33:28.511Z,100.00
2023-06-17T00:35:56.504Z,100.00
2023-06-17T00:38:24.038Z,100.00
2023-06-17T00:40:51.544Z,100.00
2023-06-17T00:43:19.180Z,100.00
2023-06-17T00:45:47.363Z,100.00
2023-06-17T00:48:18.580Z,100.00
2023-06-17T00:50:47.473Z,100.00
2023-06-17T00:53:15.469Z,100.00
2023-06-17T00:55:43.625Z,100.00
2023-06-17T00:58:11.389Z,100.00
2023-06-17T01:00:38.902Z,100.00
2023-06-17T01:03:08.752Z,100.00
2023-06-17T01:05:36.439Z,100.00
2023-06-17T01:08:15.528Z,100.00
2023-06-17T01:11:06.032Z,100.00
2023-06-17T01:13:35.860Z,100.00
2023-06-17T01:16:06.056Z,100.00
2023-06-17T01:18:34.490Z,100.00
2023-06-17T01:21:04.813Z,100.00
2023-06-17T01:23:39.075Z,100.00
2023-06-17T01:26:08.495Z,100.00
2023-06-17T01:28:41.831Z,100.00
2023-06-17T01:31:13.848Z,100.00
2023-06-17T01:33:47.220Z,100.00
2023-06-17T01:36:23.070Z,100.00
2023-06-17T01:39:06.334Z,100.00
2023-06-17T01:41:41.519Z,100.00
2023-06-17T01:44:10.147Z,100.00
2023-06-17T01:46:39.418Z,100.00
2023-06-17T01:49:07.921Z,100.00
2023-06-17T01:51:36.293Z,100.00
2023-06-17T01:54:03.960Z,100.00
2023-06-17T01:56:32.183Z,100.00
2023-06-17T01:58:59.784Z,100.00
2023-06-17T02:01:27.964Z,100.00
2023-06-17T02:03:55.537Z,100.00
2023-06-17T02:06:23.682Z,100.00
2023-06-17T02:08:51.400Z,100.00
2023-06-17T02:11:18.994Z,100.00
2023-06-17T02:13:46.999Z,100.00
2023-06-17T02:16:14.620Z,100.00
2023-06-17T02:18:43.646Z,100.00
2023-06-17T02:21:11.274Z,100.00
2023-06-17T02:23:38.803Z,100.00
2023-06-17T02:26:06.334Z,100.00
2023-06-17T02:28:33.890Z,100.00
2023-06-17T02:31:01.414Z,100.00
2023-06-17T02:33:30.986Z,100.00
2023-06-17T02:35:59.532Z,100.00
2023-06-17T02:38:27.681Z,100.00
2023-06-17T02:40:56.528Z,100.00
2023-06-17T02:43:24.003Z,100.00
2023-06-17T02:45:51.703Z,100.00
2023-06-17T02:48:19.212Z,100.00
2023-06-17T02:50:46.865Z,100.00
2023-06-17T02:53:16.264Z,100.00
2023-06-17T02:55:46.639Z,100.00
2023-06-17T02:58:20.290Z,100.00
2023-06-17T03:00:51.998Z,100.00
2023-06-17T03:03:19.933Z,100.00
2023-06-17T03:05:49.042Z,100.00
2023-06-17T03:08:19.264Z,100.00
2023-06-17T03:10:47.410Z,100.00
2023-06-17T03:13:15.679Z,100.00
2023-06-17T03:15:47.095Z,100.00
2023-06-17T03:18:20.304Z,100.00
2023-06-17T03:20:48.171Z,100.00
2023-06-17T03:23:16.818Z,100.00
2023-06-17T03:25:45.903Z,100.00
2023-06-17T03:28:13.531Z,100.00
2023-06-17T03:30:41.709Z,100.00
2023-06-17T03:33:11.052Z,100.00
2023-06-17T03:35:38.586Z,100.00
2023-06-17T03:38:06.475Z,100.00
2023-06-17T03:40:34.004Z,100.00
2023-06-17T03:43:02.637Z,100.00
2023-06-17T03:45:31.944Z,100.00
2023-06-17T03:48:01.490Z,100.00
2023-06-17T03:50:30.030Z,100.00
2023-06-17T03:52:58.519Z,100.00
2023-06-17T03:55:26.450Z,100.00
2023-06-17T03:57:56.247Z,100.00
2023-06-17T04:00:24.152Z,100.00
2023-06-17T04:02:52.286Z,100.00
2023-06-17T04:05:32.628Z,100.00
2023-06-17T04:08:03.730Z,100.00
2023-06-17T04:10:31.523Z,100.00
2023-06-17T04:13:00.429Z,100.00
2023-06-17T04:15:28.072Z,100.00
2023-06-17T04:17:58.132Z,100.00
2023-06-17T04:20:27.408Z,100.00
2023-06-17T04:22:55.009Z,100.00
2023-06-17T04:25:24.118Z,100.00
2023-06-17T04:27:55.054Z,100.00
2023-06-17T04:30:26.246Z,100.00
2023-06-17T04:32:59.578Z,100.00
2023-06-17T04:35:28.710Z,100.00
2023-06-17T04:37:57.821Z,100.00
2023-06-17T04:40:26.461Z,100.00
2023-06-17T04:42:54.202Z,100.00
2023-06-17T04:45:23.739Z,100.00
2023-06-17T04:47:57.076Z,100.00
2023-06-17T04:50:25.122Z,100.00
2023-06-17T04:52:53.081Z,100.00
2023-06-17T04:55:24.975Z,100.00
2023-06-17T04:57:52.546Z,100.00
2023-06-17T05:00:33.481Z,100.00
2023-06-17T05:03:01.542Z,100.00
2023-06-17T05:05:30.128Z,100.00
2023-06-17T05:07:58.065Z,100.00
2023-06-17T05:10:25.597Z,100.00
2023-06-17T05:12:53.268Z,100.00
2023-06-17T05:15:21.269Z,100.00
2023-06-17T05:17:49.411Z,100.00
2023-06-17T05:20:17.238Z,100.00
2023-06-17T05:22:45.190Z,100.00
2023-06-17T05:25:12.784Z,100.00
2023-06-17T05:27:41.166Z,100.00
2023-06-17T05:30:10.566Z,100.00
2023-06-17T05:32:40.164Z,100.00
2023-06-17T05:35:08.442Z,100.00
2023-06-17T05:37:36.052Z,100.00
2023-06-17T05:40:05.615Z,100.00
2023-06-17T05:42:33.947Z,100.00
2023-06-17T05:45:01.547Z,100.00
2023-06-17T05:47:31.167Z,100.00
2023-06-17T05:49:59.176Z,100.00
2023-06-17T05:52:27.553Z,100.00
2023-06-17T05:54:55.082Z,100.00
2023-06-17T05:57:22.702Z,100.00
2023-06-17T05:59:50.720Z,100.00
2023-06-17T06:02:19.206Z,100.00
2023-06-17T06:04:48.416Z,100.00
2023-06-17T06:07:15.970Z,100.00
2023-06-17T06:09:43.615Z,100.00
2023-06-17T06:12:12.124Z,100.00
2023-06-17T06:14:40.622Z,100.00
2023-06-17T06:17:08.460Z,100.00
2023-06-17T06:19:36.226Z,100.00
2023-06-17T06:22:04.189Z,100.00
2023-06-17T06:24:31.819Z,100.00
2023-06-17T06:27:00.910Z,100.00
2023-06-17T06:29:28.438Z,100.00
2023-06-17T06:31:56.019Z,100.00
2023-06-17T06:34:23.720Z,100.00
2023-06-17T06:36:51.844Z,100.00
2023-06-17T06:39:20.153Z,100.00
2023-06-17T06:41:48.070Z,100.00
2023-06-17T06:44:34.274Z,100.00
2023-06-17T06:47:02.114Z,100.00
2023-06-17T06:49:31.414Z,100.00
2023-06-17T06:51:59.234Z,100.00
2023-06-17T06:54:26.847Z,100.00
2023-06-17T06:56:54.436Z,100.00
2023-06-17T06:59:22.041Z,100.00
2023-06-17T07:01:52.525Z,100.00
2023-06-17T07:04:22.562Z,100.00
2023-06-17T07:06:55.141Z,100.00
2023-06-17T07:09:28.188Z,100.00
2023-06-17T07:11:55.798Z,100.00
2023-06-17T07:14:23.786Z,100.00
2023-06-17T07:16:52.175Z,100.00
2023-06-17T07:19:20.004Z,100.00
2023-06-17T07:21:49.873Z,100.00
2023-06-17T07:24:18.344Z,100.00
2023-06-17T07:26:46.429Z,100.00
2023-06-17T07:29:14.108Z,100.00
2023-06-17T07:31:41.816Z,100.00
2023-06-17T07:34:10.030Z,100.00
2023-06-17T07:36:37.593Z,100.00
2023-06-17T07:39:06.662Z,100.00
2023-06-17T07:41:34.171Z,100.00
2023-06-17T07:44:02.215Z,100.00
2023-06-17T07:46:33.322Z,100.00
2023-06-17T07:49:01.031Z,100.00
2023-06-17T07:51:28.563Z,100.00
2023-06-17T07:53:56.127Z,100.00
2023-06-17T07:56:26.424Z,100.00
2023-06-17T07:58:53.948Z,100.00
2023-06-17T08:01:21.988Z,100.00
2023-06-17T08:03:49.795Z,100.00
2023-06-17T08:06:17.523Z,100.00
2023-06-17T08:08:45.060Z,100.00
2023-06-17T08:11:13.131Z,100.00
2023-06-17T08:13:40.702Z,100.00
2023-06-17T08:16:08.408Z,100.00
2023-06-17T08:18:35.935Z,100.00
2023-06-17T08:21:03.632Z,100.00
2023-06-17T08:23:32.262Z,100.00
2023-06-17T08:26:00.952Z,100.00
2023-06-17T08:28:28.752Z,100.00
2023-06-17T08:30:58.318Z,100.00
2023-06-17T08:33:26.600Z,100.00
2023-06-17T08:35:54.536Z,100.00
2023-06-17T08:38:22.359Z,100.00
2023-06-17T08:40:50.102Z,100.00
2023-06-17T08:43:21.557Z,100.00
2023-06-17T08:45:53.278Z,100.00
2023-06-17T08:48:21.928Z,100.00
2023-06-17T08:50:52.197Z,100.00
2023-06-17T08:53:21.051Z,100.00
2023-06-17T08:55:49.284Z,100.00
2023-06-17T08:58:17.032Z,100.00
2023-06-17T09:00:44.706Z,100.00
2023-06-17T09:03:13.013Z,100.00
2023-06-17T09:05:40.711Z,100.00
2023-06-17T09:08:08.477Z,100.00
2023-06-17T09:10:45.900Z,100.00
2023-06-17T09:13:13.678Z,100.00
2023-06-17T09:15:42.037Z,100.00
2023-06-17T09:18:09.786Z,99.59
2023-06-17T09:20:37.447Z,100.00
2023-06-17T09:23:05.235Z,100.00
2023-06-17T09:25:36.544Z,96.55
2023-06-17T09:28:15.345Z,98.58
2023-06-17T09:30:54.387Z,97.65
2023-06-17T09:33:24.170Z,97.64
2023-06-17T09:36:05.483Z,95.30
2023-06-17T09:38:35.305Z,96.54
2023-06-17T09:41:05.611Z,97.04
2023-06-17T09:43:33.210Z,98.98
2023-06-17T09:46:04.920Z,94.82
2023-06-17T09:48:35.678Z,94.05
2023-06-17T09:51:11.055Z,97.66
2023-06-17T09:53:44.646Z,95.12
2023-06-17T09:56:17.836Z,96.52
2023-06-17T09:58:46.749Z,100.00
2023-06-17T10:01:15.179Z,100.00
2023-06-17T10:03:46.218Z,100.00
2023-06-17T10:06:20.717Z,100.00
2023-06-17T10:08:52.863Z,100.00
2023-06-17T10:11:22.651Z,100.00
2023-06-17T10:14:19.713Z,100.00
2023-06-17T10:16:50.961Z,100.00
2023-06-17T10:19:26.270Z,100.00
2023-06-17T10:22:01.662Z,100.00
2023-06-17T10:24:33.146Z,100.00
2023-06-17T10:27:11.602Z,100.00
2023-06-17T10:29:46.808Z,100.00
2023-06-17T10:32:26.925Z,100.00
2023-06-17T10:35:14.241Z,100.00
2023-06-17T10:37:50.539Z,100.00
2023-06-17T10:40:36.816Z,99.41
2023-06-17T10:43:27.587Z,100.00
2023-06-17T10:45:59.378Z,100.00
2023-06-17T10:48:35.361Z,97.09
2023-06-17T10:51:12.210Z,96.58
2023-06-17T10:53:52.001Z,99.08
2023-06-17T10:56:24.858Z,96.83
2023-06-17T10:58:52.963Z,98.05
2023-06-17T11:01:22.367Z,94.35
2023-06-17T11:04:01.394Z,95.21
2023-06-17T11:06:36.269Z,89.70
2023-06-17T11:09:06.961Z,91.79
2023-06-17T11:11:35.782Z,93.90
2023-06-17T11:14:04.261Z,97.32
2023-06-17T11:16:34.419Z,94.87
2023-06-17T11:19:07.300Z,90.99
2023-06-17T11:21:43.379Z,91.03
2023-06-17T11:24:14.537Z,89.56
2023-06-17T11:26:45.126Z,90.29
2023-06-17T11:29:14.208Z,89.09
2023-06-17T11:31:43.432Z,86.87
2023-06-17T11:35:27.598Z,86.29
2023-06-17T11:38:05.215Z,86.29
2023-06-17T11:40:36.957Z,86.20
2023-06-17T11:43:08.920Z,85.29
2023-06-17T11:45:38.652Z,84.96
2023-06-17T11:48:09.836Z,87.11
2023-06-17T11:50:42.029Z,85.51
2023-06-17T11:53:15.474Z,84.86
2023-06-17T11:55:47.242Z,84.79
2023-06-17T11:58:21.213Z,84.62
2023-06-17T12:00:49.860Z,86.30
2023-06-17T12:03:20.630Z,82.84
2023-06-17T12:06:11.919Z,86.40
2023-06-17T12:08:42.531Z,87.06
2023-06-17T12:11:46.081Z,87.63
2023-06-17T12:14:18.997Z,87.84
2023-06-17T12:16:49.554Z,86.13
2023-06-17T12:19:26.209Z,88.31
2023-06-17T12:21:54.708Z,90.54
2023-06-17T12:24:25.648Z,89.82
2023-06-17T12:26:59.825Z,88.73
2023-06-17T12:29:30.858Z,86.25
2023-06-17T12:32:01.959Z,87.42
2023-06-17T12:34:31.284Z,89.45
2023-06-17T12:37:13.637Z,87.11
2023-06-17T12:39:44.348Z,86.45
2023-06-17T12:42:15.086Z,87.14
2023-06-17T12:44:48.324Z,87.39
2023-06-17T12:47:24.956Z,87.59
2023-06-17T12:49:55.399Z,86.45
2023-06-17T12:52:27.845Z,86.82
2023-06-17T12:55:06.872Z,87.95
2023-06-17T12:57:35.776Z,88.82
2023-06-17T13:00:08.128Z,85.86
2023-06-17T13:02:39.074Z,85.43
2023-06-17T13:05:09.397Z,83.85
2023-06-17T13:07:41.927Z,84.86
2023-06-17T13:10:12.728Z,85.31
2023-06-17T13:12:42.846Z,84.30
2023-06-17T13:15:12.212Z,82.60
2023-06-17T13:17:40.753Z,81.10
2023-06-17T13:20:11.405Z,81.38
2023-06-17T13:22:40.159Z,81.97
2023-06-17T13:25:10.909Z,82.85
2023-06-17T13:27:41.962Z,83.62
2023-06-17T13:30:12.009Z,82.82
2023-06-17T13:32:40.863Z,82.09
2023-06-17T13:35:11.826Z,83.27
2023-06-17T13:37:41.215Z,83.34
2023-06-17T13:40:10.338Z,83.98
2023-06-17T13:42:38.803Z,86.44
2023-06-17T13:45:08.941Z,87.48
2023-06-17T13:47:37.210Z,88.20
2023-06-17T13:50:08.016Z,90.35
2023-06-17T13:52:36.397Z,90.83
2023-06-17T13:55:05.815Z,89.81
2023-06-17T13:57:33.952Z,92.95
2023-06-17T14:00:05.071Z,93.10
2023-06-17T14:02:37.440Z,91.96
2023-06-17T14:05:08.454Z,95.20
2023-06-17T14:07:36.994Z,95.85
2023-06-17T14:10:05.893Z,95.18
2023-06-17T14:12:34.479Z,94.25
2023-06-17T14:15:04.446Z,94.71
2023-06-17T14:17:33.106Z,92.31
2023-06-17T14:20:04.209Z,90.34
2023-06-17T14:22:33.956Z,93.45
2023-06-17T14:25:01.553Z,95.19
2023-06-17T14:27:43.789Z,94.53
2023-06-17T14:30:14.878Z,95.27
2023-06-17T14:32:46.088Z,98.38
2023-06-17T14:35:17.900Z,100.00
2023-06-17T14:37:49.744Z,100.00
2023-06-17T14:40:19.202Z,100.00
2023-06-17T14:42:48.776Z,100.00
2023-06-17T14:45:18.108Z,100.00
2023-06-17T14:47:46.827Z,100.00
2023-06-17T14:50:18.135Z,100.00
2023-06-17T14:52:51.497Z,100.00
2023-06-17T14:55:20.788Z,100.00
2023-06-17T14:57:51.471Z,100.00
2023-06-17T15:00:22.500Z,100.00
2023-06-17T15:02:57.968Z,100.00
2023-06-17T15:05:28.496Z,100.00
2023-06-17T15:07:57.563Z,100.00
2023-06-17T15:10:25.935Z,100.00
2023-06-17T15:12:54.080Z,100.00
2023-06-17T15:15:22.386Z,100.00
2023-06-17T15:17:50.668Z,100.00
2023-06-17T15:20:20.911Z,100.00
2023-06-17T15:22:49.353Z,100.00
2023-06-17T15:25:18.662Z,100.00
2023-06-17T15:27:46.586Z,100.00
2023-06-17T15:30:14.588Z,100.00
2023-06-17T15:32:42.939Z,100.00
2023-06-17T15:35:12.436Z,100.00
2023-06-17T15:37:41.858Z,100.00
2023-06-17T15:40:14.389Z,100.00
2023-06-17T15:42:45.139Z,100.00
2023-06-17T15:45:13.480Z,100.00
2023-06-17T15:47:42.519Z,100.00
2023-06-17T15:50:11.454Z,100.00
2023-06-17T15:52:41.083Z,100.00
2023-06-17T15:55:09.470Z,100.00
2023-06-17T15:57:39.120Z,100.00
2023-06-17T16:00:09.445Z,100.00
2023-06-17T16:02:43.415Z,100.00
2023-06-17T16:05:14.841Z,100.00
2023-06-17T16:07:43.022Z,100.00
2023-06-17T16:10:11.642Z,100.00
2023-06-17T16:12:39.775Z,100.00
2023-06-17T16:15:09.665Z,100.00
2023-06-17T16:17:39.501Z,100.00
2023-06-17T16:20:09.382Z,100.00
2023-06-17T16:22:38.737Z,100.00
2023-06-17T16:25:09.888Z,100.00
2023-06-17T16:27:41.702Z,100.00
2023-06-17T16:30:13.535Z,100.00
2023-06-17T16:32:41.599Z,100.00
2023-06-17T16:35:10.185Z,100.00
2023-06-17T16:37:38.002Z,100.00
2023-06-17T16:40:06.970Z,100.00
2023-06-17T16:42:37.311Z,100.00
2023-06-17T16:45:06.986Z,100.00
2023-06-17T16:47:34.883Z,100.00
2023-06-17T16:50:03.101Z,100.00
2023-06-17T16:52:31.267Z,100.00
2023-06-17T16:55:02.396Z,100.00
2023-06-17T16:57:33.517Z,100.00
2023-06-17T17:00:02.769Z,100.00
2023-06-17T17:02:33.879Z,100.00
2023-06-17T17:05:03.715Z,100.00
2023-06-17T17:07:32.816Z,100.00
2023-06-17T17:10:01.589Z,100.00
2023-06-17T17:12:30.465Z,100.00
2023-06-17T17:14:58.901Z,100.00
2023-06-17T17:17:41.339Z,100.00
2023-06-17T17:20:32.610Z,100.00
2023-06-17T17:23:04.748Z,100.00
2023-06-17T17:25:43.655Z,100.00
2023-06-17T17:28:24.060Z,100.00
2023-06-17T17:30:55.375Z,100.00
2023-06-17T17:33:27.244Z,100.00
2023-06-17T17:35:58.526Z,100.00
2023-06-17T17:38:27.851Z,100.00
2023-06-17T17:40:57.059Z,100.00
2023-06-17T17:43:30.966Z,100.00
2023-06-17T17:46:03.491Z,100.00
2023-06-17T17:48:33.660Z,100.00
2023-06-17T17:51:05.082Z,100.00
2023-06-17T17:53:35.065Z,100.00
2023-06-17T17:56:05.940Z,100.00
2023-06-17T17:58:39.583Z,100.00
2023-06-17T18:01:11.069Z,100.00
2023-06-17T18:03:42.214Z,100.00
2023-06-17T18:06:12.222Z,100.00
2023-06-17T18:08:44.339Z,100.00
2023-06-17T18:11:14.582Z,100.00
2023-06-17T18:13:44.456Z,100.00
2023-06-17T18:16:12.965Z,100.00
2023-06-17T18:18:49.298Z,100.00
2023-06-17T18:21:18.162Z,100.00
2023-06-17T18:23:48.286Z,100.00
2023-06-17T18:26:18.005Z,100.00
2023-06-17T18:28:47.901Z,100.00
2023-06-17T18:31:17.270Z,100.00
2023-06-17T18:33:49.738Z,100.00
2023-06-17T18:36:19.108Z,100.00
2023-06-17T18:38:51.280Z,100.00
2023-06-17T18:41:21.251Z,100.00
2023-06-17T18:43:53.016Z,100.00
2023-06-17T18:46:21.604Z,100.00
2023-06-17T18:48:51.766Z,100.00
2023-06-17T18:51:20.906Z,100.00
2023-06-17T18:53:52.074Z,100.00
2023-06-17T18:56:26.305Z,100.00
2023-06-17T18:58:57.630Z,100.00
2023-06-17T19:01:32.982Z,100.00
2023-06-17T19:04:04.664Z,100.00
2023-06-17T19:06:32.863Z,100.00
2023-06-17T19:09:07.458Z,100.00
2023-06-17T19:11:36.680Z,100.00
2023-06-17T19:14:07.171Z,100.00
2023-06-17T19:16:37.340Z,100.00
2023-06-17T19:19:11.625Z,100.00
2023-06-17T19:21:40.385Z,100.00
2023-06-17T19:24:09.382Z,100.00
2023-06-17T19:26:38.616Z,100.00
2023-06-17T19:29:07.916Z,100.00
2023-06-17T19:31:36.551Z,100.00
2023-06-17T19:34:10.858Z,100.00
2023-06-17T19:36:40.542Z,100.00
2023-06-17T19:39:10.756Z,100.00
2023-06-17T19:41:41.604Z,100.00
2023-06-17T19:44:11.284Z,100.00
2023-06-17T19:46:41.788Z,100.00
2023-06-17T19:49:11.292Z,100.00
2023-06-17T19:51:40.639Z,100.00
2023-06-17T19:54:12.089Z,100.00
2023-06-17T19:56:41.644Z,100.00
2023-06-17T19:59:10.638Z,100.00
2023-06-17T20:01:40.943Z,100.00
2023-06-17T20:04:10.504Z,100.00
2023-06-17T20:06:38.652Z,100.00
2023-06-17T20:09:09.673Z,100.00
2023-06-17T20:11:38.836Z,100.00
2023-06-17T20:14:08.955Z,100.00
2023-06-17T20:16:42.655Z,100.00
2023-06-17T20:19:11.688Z,100.00
2023-06-17T20:21:47.261Z,100.00
2023-06-17T20:24:19.053Z,100.00
2023-06-17T20:26:51.956Z,100.00
2023-06-17T20:29:21.960Z,100.00
2023-06-17T20:31:50.659Z,100.00
2023-06-17T20:34:25.224Z,100.00
2023-06-17T20:36:54.638Z,100.00
2023-06-17T20:39:24.559Z,100.00
2023-06-17T20:41:53.380Z,100.00
2023-06-17T20:44:25.588Z,100.00
2023-06-17T20:47:02.581Z,100.00
2023-06-17T20:49:32.033Z,100.00
2023-06-17T20:52:03.094Z,100.00
2023-06-17T20:54:35.006Z,100.00
2023-06-17T20:57:07.910Z,100.00
2023-06-17T20:59:40.397Z,100.00
2023-06-17T21:02:11.423Z,100.00
2023-06-17T21:04:40.928Z,100.00
2023-06-17T21:07:18.704Z,100.00
2023-06-17T21:09:48.490Z,100.00
2023-06-17T21:12:20.182Z,100.00
2023-06-17T21:14:54.220Z,100.00
2023-06-17T21:17:26.214Z,100.00
2023-06-17T21:19:57.536Z,100.00
2023-06-17T21:22:26.190Z,100.00
2023-06-17T21:24:54.525Z,100.00
2023-06-17T21:27:25.787Z,100.00
2023-06-17T21:29:54.167Z,100.00
2023-06-17T21:32:23.650Z,100.00
2023-06-17T21:34:52.496Z,100.00
2023-06-17T21:37:20.970Z,100.00
2023-06-17T21:39:51.155Z,100.00
2023-06-17T21:42:19.506Z,100.00
2023-06-17T21:44:47.862Z,100.00
2023-06-17T21:47:17.321Z,100.00
2023-06-17T21:49:45.410Z,100.00
2023-06-17T21:52:13.559Z,100.00
2023-06-17T21:54:41.312Z,100.00
2023-06-17T21:57:12.406Z,100.00
2023-06-17T21:59:41.734Z,100.00
2023-06-17T22:02:09.713Z,100.00
2023-06-17T22:04:38.184Z,100.00
2023-06-17T22:07:07.235Z,100.00
2023-06-17T22:09:35.193Z,100.00
2023-06-17T22:12:03.425Z,100.00
2023-06-17T22:14:31.675Z,100.00
2023-06-17T22:17:01.592Z,100.00
2023-06-17T22:19:30.228Z,100.00
2023-06-17T22:21:58.222Z,100.00
2023-06-17T22:24:25.794Z,100.00
2023-06-17T22:26:54.450Z,100.00
2023-06-17T22:29:21.903Z,100.00
2023-06-17T22:31:49.435Z,100.00
2023-06-17T22:34:17.475Z,100.00
2023-06-17T22:36:47.184Z,100.00
2023-06-17T22:39:15.624Z,100.00
2023-06-17T22:41:44.469Z,100.00
2023-06-17T22:44:12.089Z,100.00
2023-06-17T22:46:40.136Z,100.00
2023-06-17T22:49:07.749Z,100.00
2023-06-17T22:51:36.841Z,100.00
2023-06-17T22:54:06.805Z,100.00
2023-06-17T22:56:34.430Z,100.00
2023-06-17T22:59:01.924Z,100.00
2023-06-17T23:01:29.506Z,100.00
2023-06-17T23:03:57.507Z,100.00
2023-06-17T23:06:26.884Z,100.00
2023-06-17T23:08:56.020Z,100.00
2023-06-17T23:11:26.323Z,100.00
2023-06-17T23:14:01.532Z,100.00
2023-06-17T23:16:29.782Z,100.00
2023-06-17T23:18:57.304Z,100.00
2023-06-17T23:21:27.140Z,100.00
2023-06-17T23:23:55.511Z,100.00
2023-06-17T23:26:28.598Z,100.00
2023-06-17T23:28:59.156Z,100.00
2023-06-17T23:31:27.448Z,100.00
2023-06-17T23:33:55.289Z,100.00
2023-06-17T23:36:24.262Z,100.00
2023-06-17T23:38:53.094Z,100.00
2023-06-17T23:41:20.834Z,100.00
2023-06-17T23:43:48.476Z,100.00
2023-06-17T23:46:17.325Z,100.00
2023-06-17T23:48:45.512Z,100.00
2023-06-17T23:51:13.062Z,100.00
2023-06-17T23:53:40.680Z,100.00
2023-06-17T23:56:08.261Z,100.00
2023-06-17T23:58:36.780Z,100.00
